Time;durP1;ratioP1;P1;durP2;ratioP2;P2;SDS_P1;SDS_P2;PMS_P1;PMS_P2;Temp;Humidity;BMP_temperature;BMP_pressure;BME280_temperature;BME280_humidity;BME280_pressure;Samples;Min_cycle;Max_cycle;Signal;HPM_P1;HPM_P2
2021/10/25 00:02:08;;;;;;;21.20;18.40;;;6.80;99.90;;;;;;5025441;28;20473;-89
2021/10/25 00:04:35;;;;;;;22.07;17.80;;;6.80;99.90;;;;;;5022388;28;20525;-88
2021/10/25 00:07:02;;;;;;;22.63;17.70;;;6.70;99.90;;;;;;5022283;28;20481;-88
2021/10/25 00:09:29;;;;;;;25.10;19.97;;;6.70;99.90;;;;;;5020758;28;20445;-89
2021/10/25 00:11:56;;;;;;;21.87;19.57;;;6.70;99.90;;;;;;5020471;28;20556;-89
2021/10/25 00:14:23;;;;;;;22.27;19.97;;;6.70;99.90;;;;;;5029987;28;20446;-87
2021/10/25 00:16:51;;;;;;;25.13;18.30;;;6.60;99.90;;;;;;5036116;28;20465;-88
2021/10/25 00:19:18;;;;;;;23.23;19.53;;;6.60;99.90;;;;;;5019724;28;20462;-89
2021/10/25 00:21:46;;;;;;;24.93;20.33;;;6.60;99.90;;;;;;5019921;28;20575;-88
2021/10/25 00:24:13;;;;;;;23.83;20.37;;;6.60;99.90;;;;;;5018629;28;20450;-88
2021/10/25 00:26:39;;;;;;;26.70;19.23;;;6.60;99.90;;;;;;5017190;28;20474;-89
2021/10/25 00:29:06;;;;;;;21.90;19.60;;;6.60;99.90;;;;;;5020457;28;20450;-89
2021/10/25 00:31:33;;;;;;;23.33;19.23;;;6.70;99.90;;;;;;5018677;28;20492;-89
2021/10/25 00:34:01;;;;;;;23.80;20.27;;;6.70;99.90;;;;;;5024850;28;20427;-86
2021/10/25 00:36:28;;;;;;;20.67;18.43;;;6.70;99.90;;;;;;5040027;28;20485;-87
2021/10/25 00:38:55;;;;;;;24.70;19.97;;;6.70;99.90;;;;;;5024266;28;20449;-89
2021/10/25 00:41:21;;;;;;;22.90;18.70;;;6.70;99.90;;;;;;5020074;28;20452;-88
2021/10/25 00:43:48;;;;;;;21.30;18.67;;;6.70;99.90;;;;;;5017952;28;20453;-89
2021/10/25 00:46:15;;;;;;;22.73;18.50;;;6.70;99.90;;;;;;5023582;28;20474;-88
2021/10/25 00:48:42;;;;;;;22.37;19.77;;;6.70;99.90;;;;;;5038888;28;20436;-87
2021/10/25 00:51:12;;;;;;;22.30;19.43;;;6.60;99.90;;;;;;5040495;28;20446;-88
2021/10/25 00:53:39;;;;;;;23.57;19.60;;;6.60;99.90;;;;;;5035489;28;20434;-86
2021/10/25 00:56:07;;;;;;;23.43;21.03;;;6.60;99.90;;;;;;5026910;28;20454;-89
2021/10/25 00:58:34;;;;;;;23.00;18.83;;;6.60;99.90;;;;;;5017737;28;20470;-89
2021/10/25 01:01:01;;;;;;;21.40;19.30;;;6.60;99.90;;;;;;5027107;28;20446;-88
2021/10/25 01:03:29;;;;;;;22.37;20.00;;;6.60;99.90;;;;;;5021003;28;20449;-90
2021/10/25 01:05:57;;;;;;;22.30;19.07;;;6.60;99.90;;;;;;5018584;28;20505;-89
2021/10/25 01:08:27;;;;;;;22.07;18.27;;;6.60;99.90;;;;;;5017253;28;20461;-89
2021/10/25 01:10:54;;;;;;;20.00;17.93;;;6.60;99.90;;;;;;5018344;28;20446;-89
2021/10/25 01:13:21;;;;;;;20.67;17.77;;;6.60;99.90;;;;;;5017317;28;21002;-89
2021/10/25 01:15:48;;;;;;;23.90;19.93;;;6.60;99.90;;;;;;5017242;28;20474;-88
2021/10/25 01:18:15;;;;;;;21.10;18.93;;;6.60;99.90;;;;;;5017260;28;20881;-88
2021/10/25 01:20:43;;;;;;;23.57;17.33;;;6.60;99.90;;;;;;5037196;28;20426;-87
2021/10/25 01:23:10;;;;;;;23.70;18.87;;;6.60;99.90;;;;;;5039041;28;20434;-88
2021/10/25 01:25:36;;;;;;;23.53;18.70;;;6.70;99.90;;;;;;5034781;28;20467;-88
2021/10/25 01:28:04;;;;;;;22.00;18.43;;;6.60;99.90;;;;;;5035294;28;20442;-88
2021/10/25 01:30:31;;;;;;;24.40;18.47;;;6.60;99.90;;;;;;5030841;28;20512;-89
2021/10/25 01:32:57;;;;;;;21.67;18.13;;;6.60;99.90;;;;;;5021867;28;20497;-89
2021/10/25 01:35:24;;;;;;;24.63;18.73;;;6.60;99.90;;;;;;5021357;28;20458;-88
2021/10/25 01:37:52;;;;;;;24.40;18.67;;;6.60;99.90;;;;;;5039337;28;20431;-88
2021/10/25 01:40:19;;;;;;;21.43;18.50;;;6.50;99.90;;;;;;5025431;28;20450;-89
2021/10/25 01:42:46;;;;;;;20.43;17.27;;;6.40;99.90;;;;;;5020703;28;20446;-89
2021/10/25 01:45:13;;;;;;;22.27;16.90;;;6.40;99.90;;;;;;5036564;28;20434;-88
2021/10/25 01:47:40;;;;;;;20.20;17.60;;;6.50;99.90;;;;;;5028672;28;20458;-89
2021/10/25 01:50:08;;;;;;;23.70;18.27;;;6.40;99.90;;;;;;5030111;28;20457;-89
2021/10/25 01:52:36;;;;;;;21.63;17.87;;;6.30;99.90;;;;;;5030219;28;20482;-88
2021/10/25 01:55:05;;;;;;;24.90;18.77;;;6.30;99.90;;;;;;5025988;28;20454;-88
2021/10/25 01:57:32;;;;;;;20.63;17.50;;;6.30;99.90;;;;;;5022999;28;20454;-88
2021/10/25 01:59:59;;;;;;;21.70;17.83;;;6.30;99.90;;;;;;5019304;28;20442;-88
2021/10/25 02:02:26;;;;;;;20.97;18.60;;;6.30;99.90;;;;;;5018987;28;20481;-88
2021/10/25 02:04:53;;;;;;;20.60;18.50;;;6.30;99.90;;;;;;5017536;28;20449;-88
2021/10/25 02:07:19;;;;;;;20.67;18.40;;;6.30;99.90;;;;;;5014973;28;20485;-88
2021/10/25 02:09:46;;;;;;;19.17;16.73;;;6.30;99.90;;;;;;5019062;28;20453;-88
2021/10/25 02:12:14;;;;;;;24.03;17.80;;;6.30;99.90;;;;;;5039173;28;20473;-87
2021/10/25 02:14:41;;;;;;;25.03;18.63;;;6.30;99.90;;;;;;5018866;28;20434;-89
2021/10/25 02:17:08;;;;;;;19.97;16.93;;;6.20;99.90;;;;;;5032523;28;20472;-87
2021/10/25 02:19:35;;;;;;;18.70;16.80;;;6.20;99.90;;;;;;5028300;28;20448;-89
2021/10/25 02:22:01;;;;;;;20.30;17.10;;;6.20;99.90;;;;;;5030975;28;20486;-88
2021/10/25 02:24:28;;;;;;;18.83;16.83;;;6.20;99.90;;;;;;5036838;28;20456;-88
2021/10/25 02:26:55;;;;;;;23.20;15.73;;;6.20;99.90;;;;;;5023019;28;20474;-88
2021/10/25 02:29:23;;;;;;;20.47;16.20;;;6.20;99.90;;;;;;5017978;28;20454;-88
2021/10/25 02:31:50;;;;;;;19.20;15.90;;;6.20;99.90;;;;;;5017412;28;20548;-89
2021/10/25 02:34:17;;;;;;;18.50;14.93;;;6.10;99.90;;;;;;5016493;28;20450;-87
2021/10/25 02:36:44;;;;;;;17.33;15.40;;;6.10;99.90;;;;;;5015629;28;20477;-88
2021/10/25 02:39:10;;;;;;;20.17;16.50;;;6.10;99.90;;;;;;5014776;28;20450;-88
2021/10/25 02:41:38;;;;;;;22.50;16.37;;;6.00;99.90;;;;;;5015958;28;20450;-88
2021/10/25 02:44:05;;;;;;;22.50;15.10;;;6.00;99.90;;;;;;5031188;28;20899;-89
2021/10/25 02:46:33;;;;;;;16.80;15.10;;;6.00;99.90;;;;;;5023068;28;20978;-87
2021/10/25 02:48:59;;;;;;;18.80;15.77;;;6.00;99.90;;;;;;5023925;28;20442;-87
2021/10/25 02:51:26;;;;;;;20.20;17.17;;;6.00;99.90;;;;;;5037052;28;20436;-88
2021/10/25 02:53:53;;;;;;;16.67;14.83;;;6.00;99.90;;;;;;5018020;28;20486;-88
2021/10/25 02:56:20;;;;;;;20.27;15.90;;;6.00;99.90;;;;;;5016206;28;21005;-88
2021/10/25 02:58:47;;;;;;;18.20;15.13;;;5.90;99.90;;;;;;5016242;28;20450;-88
2021/10/25 03:01:13;;;;;;;17.23;15.27;;;5.90;99.90;;;;;;5015867;28;20944;-88
2021/10/25 03:03:42;;;;;;;19.37;15.67;;;5.90;99.90;;;;;;5015776;28;20446;-88
2021/10/25 06:20:37;;;;;;;22.13;17.50;;;5.70;99.90;;;;;;2156311;23;20474;-91
2021/10/25 06:23:57;;;;;;;24.67;19.80;;;5.70;99.90;;;;;;5026445;28;20461;-92
2021/10/25 06:33:47;;;;;;;26.73;19.73;;;5.70;99.90;;;;;;4859710;29;20707;-89
2021/10/25 06:56:27;;;;;;;18.67;15.80;;;6.00;99.90;;;;;;5112839;23;21995;-94
2021/10/25 06:58:54;;;;;;;20.57;17.07;;;6.00;99.90;;;;;;5026094;28;20433;-82
2021/10/25 07:01:23;;;;;;;17.23;15.43;;;6.00;99.90;;;;;;5027771;28;20492;-83
2021/10/25 07:03:52;;;;;;;23.90;17.50;;;6.00;99.90;;;;;;5029722;28;20438;-82
2021/10/25 07:06:19;;;;;;;22.57;18.00;;;6.10;99.90;;;;;;5030018;28;20922;-82
2021/10/25 07:08:53;;;;;;;23.87;18.03;;;6.10;99.90;;;;;;5029858;28;20469;-91
2021/10/25 07:11:20;;;;;;;23.70;18.13;;;6.10;99.90;;;;;;5039252;28;20512;-93
2021/10/25 07:13:51;;;;;;;20.63;16.27;;;6.10;99.90;;;;;;5032978;28;20536;-92
2021/10/25 07:16:22;;;;;;;21.23;18.10;;;6.10;99.90;;;;;;5036623;28;20485;-92
2021/10/25 07:21:38;;;;;;;20.13;17.00;;;6.20;99.90;;;;;;5028231;28;21012;-91
2021/10/25 07:27:27;;;;;;;23.53;16.80;;;6.30;99.90;;;;;;5038542;28;20484;-91
2021/10/25 08:00:41;;;;;;;18.73;14.23;;;7.70;99.90;;;;;;5021070;28;20448;-92
2021/10/25 08:06:03;;;;;;;14.87;13.43;;;8.30;99.90;;;;;;5033790;28;20454;-91
2021/10/25 08:08:42;;;;;;;19.67;15.33;;;9.30;99.90;;;;;;5051061;28;20457;-91
2021/10/25 08:14:04;;;;;;;15.60;14.00;;;12.00;99.90;;;;;;4671596;26;1177136;-94
2021/10/25 08:16:47;;;;;;;15.33;13.20;;;12.50;98.90;;;;;;4997453;28;20272;-91
2021/10/25 08:19:24;;;;;;;17.77;14.17;;;12.50;97.80;;;;;;4995335;28;20460;-92
2021/10/25 08:21:54;;;;;;;15.80;13.43;;;11.90;97.70;;;;;;4992313;28;20499;-90
2021/10/25 08:24:22;;;;;;;17.40;13.77;;;11.50;98.50;;;;;;4980142;28;20454;-93
2021/10/25 08:26:49;;;;;;;19.60;14.63;;;11.10;99.40;;;;;;4976878;28;20464;-92
2021/10/25 08:29:18;;;;;;;14.20;12.70;;;10.70;99.90;;;;;;4992259;28;20432;-91
2021/10/25 08:31:47;;;;;;;19.00;14.53;;;10.50;99.90;;;;;;4997144;28;20502;-92
2021/10/25 08:34:32;;;;;;;18.43;13.60;;;10.40;99.90;;;;;;4997662;28;20495;-93
2021/10/25 08:40:02;;;;;;;17.70;14.07;;;10.20;99.90;;;;;;4945004;29;20436;-93
2021/10/25 08:42:31;;;;;;;17.63;13.47;;;10.20;99.90;;;;;;4957771;28;20422;-89
2021/10/25 08:45:04;;;;;;;13.00;11.70;;;10.20;99.90;;;;;;4966616;28;20439;-87
2021/10/25 08:47:35;;;;;;;19.20;14.77;;;10.30;99.90;;;;;;4978665;28;20476;-87
2021/10/25 08:50:05;;;;;;;26.23;15.50;;;10.30;99.90;;;;;;4981318;28;20597;-88
2021/10/25 08:52:32;;;;;;;21.70;15.13;;;10.20;99.90;;;;;;4977681;28;20444;-88
2021/10/25 08:55:01;;;;;;;21.13;13.60;;;10.20;99.90;;;;;;4977089;28;20613;-89
2021/10/25 08:57:28;;;;;;;17.00;13.43;;;10.10;99.90;;;;;;4975074;28;20557;-88
2021/10/25 08:59:57;;;;;;;17.17;13.80;;;10.20;99.90;;;;;;4978160;28;20443;-87
2021/10/25 09:02:26;;;;;;;18.20;13.97;;;10.30;99.90;;;;;;4979883;28;20936;-86
2021/10/25 09:05:01;;;;;;;14.67;12.10;;;10.40;99.90;;;;;;4979052;28;20471;-87
2021/10/25 09:07:30;;;;;;;17.80;13.00;;;10.50;99.90;;;;;;4977430;28;20456;-87
2021/10/25 09:09:57;;;;;;;17.67;13.73;;;10.60;99.90;;;;;;4975693;28;20789;-86
2021/10/25 09:12:31;;;;;;;15.13;12.20;;;10.70;99.90;;;;;;4979225;28;20489;-87
2021/10/25 09:14:58;;;;;;;17.07;13.37;;;10.90;99.90;;;;;;4993417;28;20428;-85
2021/10/25 09:17:25;;;;;;;18.53;12.10;;;10.80;99.90;;;;;;4995801;28;20474;-87
2021/10/25 09:19:52;;;;;;;15.70;11.90;;;10.80;99.90;;;;;;4984942;28;20472;-87
2021/10/25 09:22:21;;;;;;;16.77;12.73;;;10.90;99.90;;;;;;4979864;28;20467;-87
2021/10/25 09:24:53;;;;;;;12.40;11.30;;;10.90;99.90;;;;;;4990900;28;20428;-87
2021/10/25 09:27:29;;;;;;;15.00;11.47;;;10.90;99.90;;;;;;4979811;28;20468;-86
2021/10/25 09:30:00;;;;;;;14.80;13.20;;;10.90;99.90;;;;;;4976014;28;20443;-87
2021/10/25 09:32:31;;;;;;;16.90;11.20;;;11.10;99.90;;;;;;4977140;28;20535;-86
2021/10/25 09:35:00;;;;;;;12.03;10.57;;;11.20;99.90;;;;;;4975442;28;20512;-86
2021/10/25 09:37:31;;;;;;;14.30;12.83;;;11.50;99.90;;;;;;4975220;28;20589;-87
2021/10/25 09:40:03;;;;;;;13.83;12.57;;;11.70;99.90;;;;;;4975674;28;20511;-87
2021/10/25 09:42:54;;;;;;;16.10;12.30;;;11.90;99.80;;;;;;4987492;28;20449;-88
2021/10/25 09:50:58;;;;;;;12.47;11.00;;;13.10;96.90;;;;;;4984794;28;20943;-86
2021/10/25 09:53:36;;;;;;;12.47;10.30;;;13.10;97.10;;;;;;4982115;28;20973;-87
2021/10/25 09:56:06;;;;;;;12.23;11.07;;;12.80;96.80;;;;;;4985004;28;20445;-87
2021/10/25 09:58:55;;;;;;;11.80;10.60;;;12.80;97.30;;;;;;4983981;28;20531;-88
2021/10/25 10:01:26;;;;;;;12.60;9.63;;;12.90;97.20;;;;;;4979731;28;20456;-87
2021/10/25 10:03:53;;;;;;;15.47;11.40;;;13.10;96.30;;;;;;4985449;28;20444;-87
2021/10/25 10:06:21;;;;;;;21.57;11.80;;;14.00;95.90;;;;;;4996323;28;20469;-87
2021/10/25 10:08:48;;;;;;;16.57;12.93;;;15.90;93.50;;;;;;4992803;28;20454;-88
2021/10/25 10:11:18;;;;;;;16.27;12.07;;;17.90;89.30;;;;;;4988209;28;20435;-86
2021/10/25 10:13:45;;;;;;;13.67;9.97;;;20.30;84.00;;;;;;4983124;28;20480;-86
2021/10/25 10:16:13;;;;;;;10.60;9.50;;;22.50;71.20;;;;;;4982307;28;20477;-87
2021/10/25 10:18:43;;;;;;;11.03;10.00;;;22.40;64.40;;;;;;4982405;28;20886;-87
2021/10/25 10:21:13;;;;;;;11.37;10.20;;;21.70;63.90;;;;;;4982071;28;20825;-87
2021/10/25 10:23:43;;;;;;;10.70;9.60;;;21.10;65.30;;;;;;4981717;28;20446;-87
2021/10/25 10:26:14;;;;;;;9.67;8.77;;;21.60;64.00;;;;;;4986388;28;21013;-86
2021/10/25 10:28:45;;;;;;;12.50;9.37;;;22.20;62.80;;;;;;4987177;28;20539;-87
2021/10/25 10:31:14;;;;;;;12.33;10.20;;;22.90;61.60;;;;;;4974545;28;20478;-87
2021/10/25 10:33:43;;;;;;;9.63;8.83;;;24.10;59.60;;;;;;4974892;28;20483;-86
2021/10/25 10:36:22;;;;;;;10.10;8.63;;;24.50;58.20;;;;;;4984991;28;20473;-86
2021/10/25 10:38:51;;;;;;;11.50;10.33;;;25.10;55.20;;;;;;4976174;28;20909;-86
2021/10/25 10:41:20;;;;;;;9.07;8.17;;;25.20;53.50;;;;;;4983185;28;20454;-87
2021/10/25 10:44:02;;;;;;;8.00;7.20;;;24.90;52.20;;;;;;4976641;28;20441;-87
2021/10/25 10:46:41;;;;;;;9.07;8.17;;;24.00;52.90;;;;;;4973285;28;20475;-86
2021/10/25 10:49:19;;;;;;;9.90;8.27;;;22.90;55.40;;;;;;4976675;28;20441;-87
2021/10/25 10:52:01;;;;;;;8.90;7.97;;;23.10;54.80;;;;;;4982191;28;20494;-87
2021/10/25 10:54:39;;;;;;;7.90;6.63;;;23.60;53.90;;;;;;4984128;28;20514;-87
2021/10/25 10:57:20;;;;;;;8.73;7.50;;;24.20;53.00;;;;;;4976655;28;20467;-87
2021/10/25 10:59:50;;;;;;;9.33;8.43;;;24.50;52.40;;;;;;4976351;28;20449;-86
2021/10/25 11:02:20;;;;;;;10.40;8.10;;;25.10;51.40;;;;;;4977232;28;20472;-87
2021/10/25 11:04:47;;;;;;;8.83;8.03;;;24.60;50.60;;;;;;4977414;28;20433;-89
2021/10/25 11:07:13;;;;;;;8.83;8.03;;;23.50;51.50;;;;;;4977477;28;20472;-87
2021/10/25 11:09:41;;;;;;;7.60;6.90;;;22.00;54.10;;;;;;4975651;28;20452;-87
2021/10/25 11:12:12;;;;;;;12.10;8.60;;;21.30;55.40;;;;;;4976838;28;20466;-87
2021/10/25 11:14:39;;;;;;;9.43;8.40;;;21.20;56.30;;;;;;4977448;28;20535;-86
2021/10/25 11:17:17;;;;;;;9.23;8.20;;;21.70;56.50;;;;;;4975144;28;20472;-87
2021/10/25 11:19:48;;;;;;;8.20;7.50;;;22.30;55.40;;;;;;4972931;28;20447;-88
2021/10/25 11:22:30;;;;;;;9.17;7.07;;;22.80;53.80;;;;;;4973103;28;20479;-86
2021/10/25 11:24:57;;;;;;;7.80;7.03;;;23.40;52.50;;;;;;4976793;28;20483;-88
2021/10/25 11:27:31;;;;;;;8.03;7.43;;;24.10;52.10;;;;;;4992528;28;20871;-87
2021/10/25 11:30:10;;;;;;;8.23;6.67;;;24.90;50.60;;;;;;4975077;28;20467;-87
2021/10/25 11:32:39;;;;;;;11.17;8.03;;;26.10;49.80;;;;;;4976287;28;20450;-88
2021/10/25 11:35:09;;;;;;;9.50;8.60;;;26.30;48.00;;;;;;4994154;28;20498;-87
2021/10/25 11:37:38;;;;;;;8.43;7.53;;;26.60;47.30;;;;;;4988378;28;20471;-86
2021/10/25 11:40:08;;;;;;;8.00;6.87;;;28.10;45.60;;;;;;4990361;28;20486;-88
2021/10/25 11:42:37;;;;;;;9.33;8.43;;;28.30;43.50;;;;;;4975921;28;20459;-88
2021/10/25 11:45:06;;;;;;;8.83;6.43;;;28.20;43.30;;;;;;4973222;28;20801;-87
2021/10/25 11:47:35;;;;;;;10.80;6.90;;;29.00;42.70;;;;;;4974968;28;20483;-87
2021/10/25 11:50:06;;;;;;;6.87;5.63;;;28.80;41.90;;;;;;4981507;28;20448;-87
2021/10/25 11:52:38;;;;;;;6.33;5.57;;;29.80;41.70;;;;;;4981195;28;20483;-88
2021/10/25 11:55:06;;;;;;;6.93;6.33;;;29.10;41.20;;;;;;4982657;28;20467;-87
2021/10/25 11:57:33;;;;;;;6.87;6.20;;;28.70;41.90;;;;;;4970946;28;20467;-87
2021/10/25 12:00:04;;;;;;;9.63;8.70;;;29.30;41.60;;;;;;4972047;28;20456;-87
2021/10/25 12:02:32;;;;;;;8.33;7.43;;;28.90;40.60;;;;;;4966078;28;20447;-87
2021/10/25 12:04:58;;;;;;;8.43;7.63;;;27.90;42.70;;;;;;4970372;28;20806;-88
2021/10/25 12:07:27;;;;;;;7.07;6.40;;;27.00;43.20;;;;;;4975008;28;20471;-88
2021/10/25 12:09:59;;;;;;;8.03;6.53;;;26.30;44.90;;;;;;4988412;28;20442;-88
2021/10/25 12:12:26;;;;;;;6.00;5.47;;;25.20;45.80;;;;;;4972969;28;20466;-87
2021/10/25 12:14:58;;;;;;;7.87;6.80;;;24.50;47.70;;;;;;4974419;28;20833;-87
2021/10/25 12:17:31;;;;;;;8.00;7.20;;;24.00;48.40;;;;;;4981558;28;20550;-86
2021/10/25 12:19:58;;;;;;;9.47;8.23;;;23.40;49.40;;;;;;4998809;28;20461;-87
2021/10/25 12:22:34;;;;;;;7.97;6.80;;;22.70;50.50;;;;;;5000128;28;20468;-88
2021/10/25 12:25:02;;;;;;;8.80;7.30;;;21.80;51.60;;;;;;4991952;28;20452;-88
2021/10/25 12:27:35;;;;;;;7.93;7.10;;;21.30;52.40;;;;;;4971793;28;20982;-86
2021/10/25 12:30:07;;;;;;;9.63;7.60;;;20.90;53.70;;;;;;4967364;28;20528;-87
2021/10/25 12:32:51;;;;;;;10.07;7.43;;;20.70;54.90;;;;;;4970829;28;20444;-87
2021/10/25 12:35:18;;;;;;;10.23;7.07;;;20.80;54.90;;;;;;4968057;28;20480;-88
2021/10/25 12:37:46;;;;;;;7.77;5.57;;;21.30;54.80;;;;;;4969248;28;20479;-88
2021/10/25 12:40:18;;;;;;;7.80;5.17;;;21.10;54.30;;;;;;4970741;28;20459;-88
2021/10/25 12:42:46;;;;;;;6.20;4.47;;;21.20;54.00;;;;;;4973747;28;20445;-88
2021/10/25 12:45:18;;;;;;;5.77;5.20;;;21.00;53.00;;;;;;4967049;28;20850;-87
2021/10/25 12:47:45;;;;;;;9.87;5.50;;;20.80;53.40;;;;;;4971475;28;20831;-88
2021/10/25 12:50:14;;;;;;;8.17;6.07;;;20.50;54.10;;;;;;4972918;28;20501;-88
2021/10/25 12:52:42;;;;;;;7.37;4.57;;;20.40;54.50;;;;;;4976776;28;20537;-88
2021/10/25 12:55:10;;;;;;;6.00;5.03;;;20.40;54.00;;;;;;4976928;28;20487;-88
2021/10/25 12:57:38;;;;;;;5.20;4.70;;;20.20;54.30;;;;;;4975918;28;20525;-88
2021/10/25 13:00:10;;;;;;;17.30;13.93;;;20.10;54.80;;;;;;4976910;28;20444;-88
2021/10/25 13:02:43;;;;;;;8.30;5.93;;;20.30;54.60;;;;;;4977845;28;20521;-87
2021/10/25 13:05:14;;;;;;;14.20;6.77;;;20.70;54.20;;;;;;4976164;28;20475;-88
2021/10/25 13:07:49;;;;;;;10.33;6.50;;;21.30;53.60;;;;;;4977397;28;20467;-89
2021/10/25 13:10:18;;;;;;;10.33;7.40;;;21.60;53.00;;;;;;4977081;28;20432;-88
2021/10/25 13:12:45;;;;;;;11.70;6.17;;;22.10;52.00;;;;;;4977693;28;20456;-88
2021/10/25 13:15:12;;;;;;;8.93;5.10;;;23.50;51.30;;;;;;4976526;28;20532;-88
2021/10/25 13:17:41;;;;;;;6.13;4.87;;;25.10;48.10;;;;;;4977156;28;20474;-88
2021/10/25 13:20:13;;;;;;;6.17;4.70;;;26.20;46.50;;;;;;4976754;28;20466;-89
2021/10/25 13:22:40;;;;;;;5.87;4.90;;;27.20;44.60;;;;;;4983431;28;20468;-87
2021/10/25 13:25:08;;;;;;;7.10;5.80;;;26.20;43.90;;;;;;4989651;28;20534;-88
2021/10/25 13:27:37;;;;;;;11.63;4.90;;;25.50;45.30;;;;;;4997155;28;20464;-87
2021/10/25 13:30:04;;;;;;;10.93;6.40;;;24.90;46.70;;;;;;4978826;28;20476;-88
2021/10/25 13:32:31;;;;;;;8.30;6.07;;;24.40;47.10;;;;;;4977084;28;20451;-87
2021/10/25 13:34:57;;;;;;;9.27;5.03;;;24.20;48.40;;;;;;4988190;28;20491;-87
2021/10/25 13:37:24;;;;;;;5.60;3.60;;;24.10;48.50;;;;;;4989436;28;20475;-86
2021/10/25 13:39:51;;;;;;;8.53;4.77;;;23.70;48.70;;;;;;4978640;28;20447;-88
2021/10/25 13:42:18;;;;;;;9.63;4.50;;;23.20;49.90;;;;;;4981482;28;20424;-88
2021/10/25 13:44:46;;;;;;;11.53;6.03;;;23.50;49.90;;;;;;4979066;28;20448;-88
2021/10/25 13:47:14;;;;;;;6.33;2.97;;;24.20;48.20;;;;;;4967705;28;20522;-87
2021/10/25 13:49:40;;;;;;;8.10;4.30;;;24.20;46.30;;;;;;4969048;28;20517;-88
2021/10/25 13:52:07;;;;;;;5.37;3.53;;;23.80;46.40;;;;;;4969960;28;20552;-88
2021/10/25 13:54:34;;;;;;;3.10;2.80;;;23.00;46.00;;;;;;4970562;28;20479;-88
2021/10/25 13:57:06;;;;;;;4.97;2.33;;;22.20;44.10;;;;;;4973658;28;20575;-90
2021/10/25 13:59:33;;;;;;;3.97;3.10;;;21.80;44.30;;;;;;4970804;28;20899;-88
2021/10/25 14:02:03;;;;;;;2.40;2.20;;;21.90;45.30;;;;;;4976515;28;20510;-87
2021/10/25 14:04:30;;;;;;;4.97;2.57;;;21.60;45.90;;;;;;4974769;28;20894;-89
2021/10/25 14:06:56;;;;;;;5.80;3.63;;;21.40;47.70;;;;;;4976109;28;20981;-88
2021/10/25 14:09:25;;;;;;;4.83;2.80;;;21.20;48.10;;;;;;4975322;28;20438;-88
2021/10/25 14:11:54;;;;;;;3.00;2.70;;;21.00;48.60;;;;;;4975951;28;20467;-87
2021/10/25 14:14:25;;;;;;;5.33;3.33;;;21.00;49.10;;;;;;4975304;28;20479;-87
2021/10/25 14:16:53;;;;;;;8.07;4.77;;;20.70;48.70;;;;;;4974062;28;20475;-87
2021/10/25 14:19:22;;;;;;;4.00;3.60;;;20.60;49.90;;;;;;4974046;28;20448;-87
2021/10/25 14:21:51;;;;;;;4.57;3.33;;;20.50;49.60;;;;;;4971033;28;20423;-87
2021/10/25 14:24:19;;;;;;;3.43;3.00;;;20.50;49.10;;;;;;4980865;28;20455;-88
2021/10/25 14:26:47;;;;;;;4.00;2.97;;;20.20;50.10;;;;;;4985534;28;20993;-88
2021/10/25 14:29:20;;;;;;;4.53;3.70;;;20.20;49.20;;;;;;4977869;28;20945;-90
2021/10/25 14:31:48;;;;;;;5.00;3.20;;;20.20;48.30;;;;;;4977248;28;20432;-90
2021/10/25 14:34:17;;;;;;;6.17;3.80;;;19.90;49.00;;;;;;4975889;28;20455;-88
2021/10/25 14:36:49;;;;;;;5.40;3.73;;;19.70;50.60;;;;;;4968727;28;20933;-89
2021/10/25 14:39:21;;;;;;;5.57;4.47;;;19.50;51.20;;;;;;4967877;28;20548;-88
2021/10/25 14:41:52;;;;;;;7.63;4.63;;;19.20;52.00;;;;;;4970469;28;21185;-88
2021/10/25 14:44:27;;;;;;;10.13;6.60;;;18.90;52.10;;;;;;4970868;28;20458;-89
2021/10/25 14:55:19;;;;;;;8.57;4.10;;;18.10;54.50;;;;;;4967725;28;20488;-89
2021/10/25 14:57:46;;;;;;;5.77;4.63;;;18.00;54.90;;;;;;4980896;28;20453;-87
2021/10/25 15:00:15;;;;;;;9.97;5.20;;;18.00;55.00;;;;;;4977920;28;20448;-88
2021/10/25 15:02:41;;;;;;;7.03;4.70;;;17.90;56.10;;;;;;4971307;28;20438;-88
2021/10/25 15:05:11;;;;;;;6.67;4.60;;;17.80;56.00;;;;;;4967708;28;20440;-89
2021/10/25 15:07:40;;;;;;;10.63;4.90;;;17.70;56.60;;;;;;4966386;28;20973;-88
2021/10/25 15:10:08;;;;;;;6.40;4.17;;;17.70;56.90;;;;;;4969502;28;20445;-88
2021/10/25 15:12:35;;;;;;;9.50;5.80;;;17.60;57.10;;;;;;4969441;28;20822;-88
2021/10/25 15:15:02;;;;;;;7.53;5.83;;;17.60;57.50;;;;;;4975244;28;20474;-86
2021/10/25 15:17:28;;;;;;;9.00;5.33;;;17.50;58.00;;;;;;4993060;28;20468;-87
2021/10/25 15:19:55;;;;;;;8.57;5.07;;;17.40;58.40;;;;;;5017060;23;20516;-85
2021/10/25 15:22:22;;;;;;;7.93;5.60;;;17.30;59.50;;;;;;5020178;28;20453;-87
2021/10/25 15:24:53;;;;;;;9.27;6.57;;;17.20;59.40;;;;;;5014628;28;20469;-85
2021/10/25 15:27:20;;;;;;;10.43;8.07;;;17.10;60.00;;;;;;5025169;28;20494;-85
2021/10/25 15:29:50;;;;;;;11.60;6.80;;;17.10;60.70;;;;;;5012808;28;20562;-86
2021/10/25 15:32:20;;;;;;;11.20;6.73;;;17.00;61.10;;;;;;5015980;28;20454;-87
2021/10/25 15:34:49;;;;;;;9.40;7.40;;;17.00;62.70;;;;;;5003048;28;20878;-85
2021/10/25 15:37:17;;;;;;;11.30;8.33;;;16.90;63.30;;;;;;5002915;28;20443;-88
2021/10/25 15:39:45;;;;;;;9.10;6.70;;;16.90;64.10;;;;;;5005310;28;20466;-87
2021/10/25 15:42:13;;;;;;;8.77;7.63;;;16.90;65.10;;;;;;5005600;28;20452;-86
2021/10/25 15:44:43;;;;;;;14.47;8.27;;;16.90;65.50;;;;;;5014778;28;20429;-85
2021/10/25 15:47:10;;;;;;;10.07;7.20;;;16.80;66.20;;;;;;5019126;28;20433;-86
2021/10/25 15:49:37;;;;;;;12.77;7.13;;;16.80;67.00;;;;;;5008194;28;20475;-86
2021/10/25 15:52:04;;;;;;;9.23;6.93;;;16.80;67.20;;;;;;5012397;28;20540;-86
2021/10/25 15:54:33;;;;;;;17.03;8.80;;;16.80;67.30;;;;;;5018342;28;20454;-87
2021/10/25 15:57:00;;;;;;;13.17;8.23;;;16.80;67.70;;;;;;5020739;28;20444;-86
2021/10/25 15:59:28;;;;;;;8.53;6.83;;;16.80;68.00;;;;;;5023230;28;20481;-87
2021/10/25 16:01:55;;;;;;;12.60;7.60;;;16.80;68.30;;;;;;5013013;28;20435;-86
2021/10/25 16:04:22;;;;;;;9.60;6.87;;;16.70;68.60;;;;;;5021032;28;20458;-87
2021/10/25 16:06:49;;;;;;;7.43;6.20;;;16.60;69.00;;;;;;5023104;28;20438;-85
2021/10/25 16:09:15;;;;;;;13.50;6.60;;;16.40;69.80;;;;;;5025827;28;20462;-85
2021/10/25 16:11:43;;;;;;;9.10;7.07;;;16.30;70.70;;;;;;5030598;28;20468;-83
2021/10/25 16:14:10;;;;;;;7.13;6.37;;;16.10;71.00;;;;;;5014432;28;20467;-84
2021/10/25 16:16:38;;;;;;;8.37;6.63;;;15.90;71.70;;;;;;5019168;28;20869;-84
2021/10/25 16:19:05;;;;;;;11.20;6.43;;;15.80;72.60;;;;;;5013130;28;20467;-84
2021/10/25 16:21:33;;;;;;;8.87;6.57;;;15.60;73.30;;;;;;5009265;28;20454;-86
2021/10/25 16:24:00;;;;;;;12.07;9.53;;;15.50;74.30;;;;;;5005271;28;20442;-86
2021/10/25 16:26:27;;;;;;;7.40;6.37;;;15.40;75.00;;;;;;5008253;28;20841;-85
2021/10/25 16:28:54;;;;;;;19.03;10.87;;;15.40;75.70;;;;;;5005279;28;20474;-86
2021/10/25 16:31:21;;;;;;;7.53;5.83;;;15.30;76.60;;;;;;5005749;28;20839;-86
2021/10/25 16:33:49;;;;;;;8.83;6.40;;;15.20;77.10;;;;;;5008216;28;20438;-85
2021/10/25 16:36:17;;;;;;;8.33;6.60;;;15.10;77.20;;;;;;5008364;28;20493;-86
2021/10/25 16:38:44;;;;;;;10.53;7.67;;;15.00;78.50;;;;;;5009171;28;20454;-85
2021/10/25 16:41:11;;;;;;;9.37;7.53;;;14.90;79.40;;;;;;5008792;28;20434;-85
2021/10/25 16:43:38;;;;;;;12.93;8.27;;;14.80;80.20;;;;;;5008070;28;20441;-85
2021/10/25 16:46:06;;;;;;;9.73;8.90;;;14.70;81.10;;;;;;5015285;28;20441;-85
2021/10/25 16:48:37;;;;;;;11.60;7.40;;;14.70;81.40;;;;;;5033155;28;20466;-85
2021/10/25 16:51:08;;;;;;;11.17;7.50;;;14.70;82.10;;;;;;5037053;28;20493;-85
2021/10/25 16:53:44;;;;;;;9.00;7.37;;;14.60;82.60;;;;;;5021102;28;20439;-85
2021/10/25 17:04:56;;;;;;;12.20;7.87;;;14.50;85.10;;;;;;5020828;28;20426;-86
2021/10/25 17:10:09;;;;;;;10.80;8.30;;;14.30;86.70;;;;;;5001560;28;21014;-87
2021/10/25 17:12:35;;;;;;;13.37;8.10;;;14.20;86.80;;;;;;5010024;28;20454;-86
2021/10/25 17:15:02;;;;;;;10.30;6.87;;;14.20;87.60;;;;;;5009949;28;20440;-87
2021/10/25 17:17:31;;;;;;;10.73;7.70;;;14.20;87.30;;;;;;5018361;28;20449;-88
2021/10/25 17:19:58;;;;;;;12.00;7.93;;;14.20;87.60;;;;;;5016738;28;20470;-87
2021/10/25 17:22:26;;;;;;;12.13;6.50;;;14.10;88.10;;;;;;5014609;28;20521;-86
2021/10/25 17:24:53;;;;;;;13.03;7.50;;;14.10;88.40;;;;;;5013411;28;20460;-87
2021/10/25 17:27:20;;;;;;;18.97;7.40;;;14.10;88.70;;;;;;5009963;28;20453;-87
2021/10/25 17:29:47;;;;;;;14.73;8.50;;;14.10;89.30;;;;;;5012430;28;20467;-87
2021/10/25 17:32:17;;;;;;;14.43;7.00;;;14.00;89.70;;;;;;5014983;28;20445;-87
2021/10/25 17:34:45;;;;;;;12.33;8.07;;;14.00;90.10;;;;;;4999173;28;20470;-88
2021/10/25 17:37:12;;;;;;;12.20;8.00;;;14.00;90.10;;;;;;5016871;28;20486;-87
2021/10/25 17:39:41;;;;;;;11.53;7.73;;;13.90;90.20;;;;;;5009307;28;20469;-87
2021/10/25 17:42:08;;;;;;;15.57;8.90;;;13.80;90.30;;;;;;5010691;28;20455;-87